Time;durP1;ratioP1;P1;durP2;ratioP2;P2;SDS_P1;SDS_P2;PMS_P1;PMS_P2;Temp;Humidity;BMP_temperature;BMP_pressure;BME280_temperature;BME280_humidity;BME280_pressure;Samples;Min_cycle;Max_cycle;Signal;HPM_P1;HPM_P2
2022/09/07 00:00:51;;;;;;;12.88;11.77;;;19.10;99.90;;;;;;5044774;28;20400;-56
2022/09/07 00:03:18;;;;;;;13.05;11.35;;;19.10;99.90;;;;;;5027607;28;20545;-57
2022/09/07 00:05:46;;;;;;;12.85;11.55;;;19.00;99.90;;;;;;5032410;28;20409;-58
2022/09/07 00:08:13;;;;;;;13.20;11.05;;;19.00;99.90;;;;;;5029214;28;20053;-48
2022/09/07 00:10:40;;;;;;;12.40;11.07;;;19.00;99.90;;;;;;5026593;28;20048;-57
2022/09/07 00:13:07;;;;;;;12.65;10.98;;;19.00;99.90;;;;;;5031125;28;20056;-57
2022/09/07 00:15:38;;;;;;;12.52;11.23;;;18.90;99.90;;;;;;5018239;28;20452;-57
2022/09/07 00:18:04;;;;;;;12.95;11.40;;;18.90;99.90;;;;;;5030831;28;20044;-44
2022/09/07 00:20:30;;;;;;;15.68;10.50;;;18.90;99.90;;;;;;5022432;28;20041;-45
2022/09/07 00:22:56;;;;;;;13.98;12.52;;;18.80;99.90;;;;;;5026332;28;20053;-44
2022/09/07 00:25:22;;;;;;;12.80;11.45;;;18.80;99.90;;;;;;5045720;28;20041;-45
2022/09/07 00:27:48;;;;;;;12.80;11.70;;;18.70;99.90;;;;;;5026065;28;20557;-45
2022/09/07 00:30:14;;;;;;;12.68;11.07;;;18.70;99.90;;;;;;5029789;28;20041;-46
2022/09/07 00:32:40;;;;;;;13.65;11.98;;;18.70;99.90;;;;;;5044982;28;20143;-44
2022/09/07 00:35:07;;;;;;;13.75;12.38;;;18.70;99.90;;;;;;5029441;28;20060;-45
2022/09/07 00:37:33;;;;;;;13.20;11.93;;;18.70;99.90;;;;;;5036191;28;20060;-49
2022/09/07 00:39:59;;;;;;;15.10;13.55;;;18.80;99.90;;;;;;5037018;28;20496;-43
2022/09/07 00:42:25;;;;;;;15.55;11.88;;;18.70;99.90;;;;;;5036474;28;20060;-42
2022/09/07 00:45:10;;;;;;;14.40;11.55;;;18.70;99.90;;;;;;5039110;28;20194;-46
2022/09/07 00:47:48;;;;;;;14.07;12.38;;;18.60;99.90;;;;;;5019653;28;20492;-43
2022/09/07 00:50:31;;;;;;;14.73;13.38;;;18.50;99.90;;;;;;5041281;28;20071;-57
2022/09/07 00:53:21;;;;;;;14.82;13.30;;;18.30;99.90;;;;;;5020210;28;20045;-57
2022/09/07 00:55:49;;;;;;;15.60;14.10;;;18.20;99.90;;;;;;5017932;28;20091;-57
2022/09/07 00:58:18;;;;;;;18.77;14.80;;;18.10;99.90;;;;;;5011185;28;20045;-58
2022/09/07 01:00:45;;;;;;;19.15;16.02;;;18.00;99.90;;;;;;5026957;28;20466;-43
2022/09/07 01:03:15;;;;;;;18.10;16.40;;;18.00;99.90;;;;;;5030072;28;20053;-43
2022/09/07 01:05:43;;;;;;;19.77;17.73;;;17.80;99.90;;;;;;5034936;28;20463;-42
2022/09/07 01:08:12;;;;;;;22.58;17.73;;;17.80;99.90;;;;;;5040024;28;20057;-58
2022/09/07 01:10:39;;;;;;;22.10;19.83;;;17.60;99.90;;;;;;5040500;28;20049;-58
2022/09/07 01:13:05;;;;;;;24.35;21.92;;;17.60;99.90;;;;;;5016858;28;20520;-58
2022/09/07 01:15:44;;;;;;;28.65;25.80;;;17.50;99.90;;;;;;5020148;28;20151;-59
2022/09/07 01:18:34;;;;;;;29.42;26.50;;;17.40;99.90;;;;;;5033095;28;20386;-47
2022/09/07 01:21:24;;;;;;;30.95;28.17;;;17.50;99.90;;;;;;5033594;28;20191;-45
2022/09/07 01:24:34;;;;;;;28.60;25.80;;;17.50;99.90;;;;;;5048355;28;20052;-41
2022/09/07 01:27:21;;;;;;;30.85;27.83;;;17.50;99.90;;;;;;5029154;28;20041;-42
2022/09/07 01:29:56;;;;;;;33.67;30.40;;;17.50;99.90;;;;;;5032288;28;20531;-55
2022/09/07 01:33:06;;;;;;;35.47;31.98;;;17.50;99.90;;;;;;5025892;28;20876;-42
2022/09/07 01:35:35;;;;;;;39.70;35.88;;;17.50;99.90;;;;;;5021961;28;20041;-44
2022/09/07 01:38:20;;;;;;;37.10;33.33;;;17.60;99.90;;;;;;5024677;28;20072;-43
2022/09/07 01:41:51;;;;;;;35.45;31.75;;;17.70;99.90;;;;;;5033999;28;20118;-42
2022/09/07 01:44:23;;;;;;;34.38;31.00;;;17.80;99.90;;;;;;4964687;28;20050;-44
2022/09/07 01:46:49;;;;;;;;;;;17.70;99.90;;;;;;5032049;28;20522;-41
2022/09/07 01:49:18;;;;;;;35.28;31.63;;;17.70;99.90;;;;;;5035309;28;19925;-51
2022/09/07 01:51:51;;;;;;;31.95;28.73;;;17.60;99.90;;;;;;5033235;28;20045;-45
2022/09/07 01:54:43;;;;;;;34.30;31.00;;;17.60;99.90;;;;;;5015561;28;20128;-45
2022/09/07 01:57:33;;;;;;;31.90;29.05;;;17.60;99.90;;;;;;5040768;28;20041;-43
2022/09/07 02:00:12;;;;;;;34.35;30.77;;;17.60;99.90;;;;;;5046659;28;20052;-45
2022/09/07 02:02:50;;;;;;;34.25;30.92;;;17.60;99.90;;;;;;5028838;28;20634;-47
2022/09/07 02:05:22;;;;;;;30.63;27.77;;;17.60;99.90;;;;;;5033261;28;20462;-53
2022/09/07 02:07:58;;;;;;;31.90;28.75;;;17.50;99.90;;;;;;5029176;28;20055;-48
2022/09/07 02:10:47;;;;;;;35.35;32.05;;;17.50;99.90;;;;;;5024701;28;20041;-44
2022/09/07 02:13:28;;;;;;;33.30;30.10;;;17.50;99.90;;;;;;5025937;28;20391;-47
2022/09/07 02:16:06;;;;;;;34.42;31.40;;;17.40;99.90;;;;;;5026431;28;20041;-52
2022/09/07 02:18:40;;;;;;;33.42;30.50;;;17.40;99.90;;;;;;5031142;28;20041;-53
2022/09/07 02:21:09;;;;;;;34.30;31.10;;;17.40;99.90;;;;;;5027028;28;20437;-51
2022/09/07 02:23:48;;;;;;;37.55;33.78;;;17.40;99.90;;;;;;5030444;28;20041;-53
2022/09/07 02:26:18;;;;;;;35.63;32.25;;;17.40;99.90;;;;;;5047194;28;20081;-49
2022/09/07 02:28:44;;;;;;;35.13;31.65;;;17.40;99.90;;;;;;5030897;28;20053;-51
2022/09/07 02:31:10;;;;;;;38.05;34.53;;;17.40;99.90;;;;;;5037017;28;20576;-54
2022/09/07 02:33:37;;;;;;;33.83;30.80;;;17.50;99.90;;;;;;5033516;28;20044;-51
2022/09/07 02:36:04;;;;;;;36.05;32.65;;;17.50;99.90;;;;;;5040339;28;20057;-53
2022/09/07 02:38:31;;;;;;;33.83;30.98;;;17.50;99.90;;;;;;5034655;28;20049;-50
2022/09/07 02:41:00;;;;;;;34.78;31.65;;;17.50;99.90;;;;;;5028255;28;20084;-53
2022/09/07 02:43:27;;;;;;;34.92;31.65;;;17.50;99.90;;;;;;5031433;28;20493;-53
2022/09/07 02:46:08;;;;;;;34.10;30.65;;;17.40;99.90;;;;;;5041329;28;20544;-56
2022/09/07 02:49:02;;;;;;;32.27;29.33;;;17.40;99.90;;;;;;5027039;28;20049;-51
2022/09/07 02:51:37;;;;;;;34.50;31.38;;;17.40;99.90;;;;;;5044315;28;20923;-52
2022/09/07 02:54:44;;;;;;;36.22;32.88;;;17.40;99.90;;;;;;5025781;28;20041;-52
2022/09/07 02:57:13;;;;;;;33.65;30.55;;;17.40;99.90;;;;;;5021602;28;20049;-52
2022/09/07 02:59:42;;;;;;;32.08;29.10;;;17.30;99.90;;;;;;5040500;28;20207;-57
2022/09/07 03:02:20;;;;;;;33.58;30.48;;;17.30;99.90;;;;;;5029162;28;20093;-53
2022/09/07 03:04:50;;;;;;;34.50;30.77;;;17.30;99.90;;;;;;5027528;28;20199;-43
2022/09/07 03:07:22;;;;;;;35.00;31.80;;;17.20;99.90;;;;;;5044425;28;20451;-45
2022/09/07 03:09:52;;;;;;;32.25;29.42;;;17.30;99.90;;;;;;5031205;28;20053;-47
2022/09/07 03:12:18;;;;;;;33.00;29.95;;;17.20;99.90;;;;;;5009574;28;20053;-43
2022/09/07 03:14:44;;;;;;;34.17;30.70;;;17.20;99.90;;;;;;5034165;28;20048;-47
2022/09/07 03:17:12;;;;;;;34.75;31.55;;;17.20;99.90;;;;;;5005875;28;20409;-43
2022/09/07 03:19:38;;;;;;;32.47;29.33;;;17.20;99.90;;;;;;5039989;28;20087;-44
2022/09/07 03:22:05;;;;;;;32.70;29.88;;;17.20;99.90;;;;;;5024546;28;21260;-46
2022/09/07 03:24:31;;;;;;;31.95;28.95;;;17.20;99.90;;;;;;5026222;28;20052;-45
2022/09/07 03:26:57;;;;;;;35.25;31.95;;;17.20;99.90;;;;;;5042850;28;20053;-44
2022/09/07 03:29:23;;;;;;;33.45;30.45;;;17.10;99.90;;;;;;5028422;28;20493;-47
2022/09/07 03:31:49;;;;;;;29.00;26.38;;;17.20;99.90;;;;;;5013006;28;20046;-43
2022/09/07 03:34:16;;;;;;;28.63;26.23;;;17.10;99.90;;;;;;5032846;28;20525;-45
2022/09/07 03:36:42;;;;;;;29.40;26.73;;;17.10;99.90;;;;;;5027039;28;20433;-43
2022/09/07 03:39:11;;;;;;;30.65;27.90;;;17.10;99.90;;;;;;5043396;28;20055;-44
2022/09/07 03:41:37;;;;;;;32.20;29.30;;;17.20;99.90;;;;;;5051342;28;20049;-42
2022/09/07 03:44:04;;;;;;;30.08;27.25;;;17.20;99.90;;;;;;5032441;28;20064;-44
2022/09/07 03:46:30;;;;;;;29.25;26.30;;;17.20;99.90;;;;;;5031444;28;20512;-52
2022/09/07 03:48:56;;;;;;;30.35;27.70;;;17.20;99.90;;;;;;5039700;28;20120;-44
2022/09/07 03:51:22;;;;;;;29.45;26.85;;;17.20;99.90;;;;;;5030460;28;20102;-53
2022/09/07 03:53:50;;;;;;;30.48;27.55;;;17.20;99.90;;;;;;5026048;28;20044;-50
2022/09/07 03:56:18;;;;;;;29.98;27.10;;;17.10;99.90;;;;;;5025720;28;20049;-52
2022/09/07 03:58:46;;;;;;;29.05;26.65;;;17.10;99.90;;;;;;5036083;28;20077;-50
2022/09/07 04:01:15;;;;;;;31.90;29.00;;;17.10;99.90;;;;;;5028347;28;20128;-43
2022/09/07 04:03:43;;;;;;;31.40;28.35;;;17.10;99.90;;;;;;5043973;28;20575;-44
2022/09/07 04:06:09;;;;;;;28.75;26.00;;;17.10;99.90;;;;;;5028038;28;20045;-46
2022/09/07 04:08:37;;;;;;;29.25;26.13;;;17.10;99.90;;;;;;5031997;28;20053;-42
2022/09/07 04:11:05;;;;;;;32.13;29.00;;;17.10;99.90;;;;;;5032585;28;20723;-42
2022/09/07 04:13:34;;;;;;;29.80;27.02;;;17.00;99.90;;;;;;5052458;28;20044;-47
2022/09/07 04:16:12;;;;;;;29.92;27.02;;;17.00;99.90;;;;;;5046470;28;20044;-52
2022/09/07 04:18:40;;;;;;;28.73;25.95;;;17.00;99.90;;;;;;5056443;28;20124;-47
2022/09/07 04:21:06;;;;;;;30.77;27.85;;;17.00;99.90;;;;;;5035557;28;20053;-44
2022/09/07 04:23:33;;;;;;;29.33;26.77;;;17.00;99.90;;;;;;5029570;28;20147;-43
2022/09/07 04:25:59;;;;;;;31.08;28.23;;;17.00;99.90;;;;;;5032939;28;20052;-43
2022/09/07 04:28:25;;;;;;;27.85;25.30;;;16.90;99.90;;;;;;5033664;28;20052;-52
2022/09/07 04:30:51;;;;;;;30.73;27.90;;;16.90;99.90;;;;;;5035169;28;20483;-48
2022/09/07 04:33:17;;;;;;;28.75;26.15;;;16.90;99.90;;;;;;5041468;28;20492;-46
2022/09/07 04:35:43;;;;;;;29.02;26.35;;;16.90;99.90;;;;;;5054412;28;20385;-46
2022/09/07 04:38:14;;;;;;;28.85;26.00;;;16.90;99.90;;;;;;5018738;28;20055;-46
2022/09/07 04:40:43;;;;;;;29.92;27.25;;;16.90;99.90;;;;;;5043198;28;20530;-46
2022/09/07 04:43:11;;;;;;;31.80;28.85;;;17.00;99.90;;;;;;5021902;28;20053;-44
2022/09/07 04:45:39;;;;;;;31.50;28.52;;;16.90;99.90;;;;;;5016971;28;20057;-46
2022/09/07 04:48:05;;;;;;;30.38;27.48;;;17.00;99.90;;;;;;5035907;28;20087;-45
2022/09/07 04:50:31;;;;;;;30.83;28.33;;;17.00;99.90;;;;;;5029244;28;20763;-43
2022/09/07 04:52:57;;;;;;;31.67;28.45;;;17.00;99.90;;;;;;5054907;28;20041;-53
2022/09/07 04:55:24;;;;;;;34.30;31.20;;;17.10;99.90;;;;;;5001570;28;20048;-52
2022/09/07 04:57:50;;;;;;;34.85;31.63;;;17.10;99.90;;;;;;5029210;28;20550;-52
2022/09/07 05:00:16;;;;;;;35.65;32.20;;;17.10;99.90;;;;;;5030364;28;20081;-52
2022/09/07 05:02:42;;;;;;;37.80;34.20;;;17.10;99.90;;;;;;5036973;28;20503;-48
2022/09/07 05:05:09;;;;;;;32.40;29.60;;;17.20;99.90;;;;;;5044615;28;20084;-46
2022/09/07 05:07:35;;;;;;;34.58;31.55;;;17.20;99.90;;;;;;5035125;28;20113;-44
2022/09/07 05:10:01;;;;;;;35.55;32.17;;;17.20;99.90;;;;;;5012354;28;20057;-52
2022/09/07 05:12:27;;;;;;;32.05;29.20;;;17.20;99.90;;;;;;5031085;28;20045;-44
2022/09/07 05:14:53;;;;;;;39.20;35.50;;;17.20;99.90;;;;;;5042568;28;20075;-53
2022/09/07 05:17:19;;;;;;;36.30;32.83;;;17.30;99.90;;;;;;5031049;28;20045;-43
2022/09/07 05:19:46;;;;;;;34.67;31.58;;;17.30;99.90;;;;;;5048142;28;20080;-43
2022/09/07 05:22:12;;;;;;;34.85;31.77;;;17.20;99.90;;;;;;5043958;28;20045;-45
2022/09/07 05:24:38;;;;;;;33.83;30.83;;;17.30;99.90;;;;;;5033360;28;20604;-45
2022/09/07 05:27:05;;;;;;;32.58;29.67;;;17.20;99.90;;;;;;5040042;28;20059;-48
2022/09/07 05:29:31;;;;;;;33.65;30.73;;;17.20;99.90;;;;;;5035559;28;20522;-44
2022/09/07 05:31:58;;;;;;;33.10;30.20;;;17.20;99.90;;;;;;5023284;28;20570;-43
2022/09/07 05:34:24;;;;;;;33.88;31.00;;;17.20;99.90;;;;;;5039525;28;20159;-46
2022/09/07 05:36:50;;;;;;;38.10;34.60;;;17.20;99.90;;;;;;5033636;28;20052;-44
2022/09/07 05:39:17;;;;;;;35.10;32.03;;;17.30;99.90;;;;;;5010431;28;20716;-47
2022/09/07 05:41:43;;;;;;;34.67;31.48;;;17.30;99.90;;;;;;5022953;28;20136;-50
2022/09/07 05:44:09;;;;;;;36.38;32.75;;;17.20;99.90;;;;;;5013135;28;20075;-51
2022/09/07 05:46:35;;;;;;;36.72;33.53;;;17.20;99.90;;;;;;5000444;28;20062;-52
2022/09/07 05:49:02;;;;;;;36.20;33.05;;;17.20;99.90;;;;;;5043182;28;20119;-52
2022/09/07 05:51:28;;;;;;;32.90;30.00;;;17.20;99.90;;;;;;5043079;28;20052;-50
2022/09/07 05:53:55;;;;;;;37.83;34.17;;;17.20;99.90;;;;;;5018937;28;20063;-47
2022/09/07 05:56:21;;;;;;;38.22;34.35;;;17.20;99.90;;;;;;5042507;28;20580;-44
2022/09/07 05:58:48;;;;;;;42.60;38.67;;;17.20;99.90;;;;;;5031094;28;20038;-52
2022/09/07 06:01:15;;;;;;;36.30;32.85;;;17.30;99.90;;;;;;5048867;28;20537;-50
2022/09/07 06:03:43;;;;;;;39.03;35.72;;;17.30;99.90;;;;;;5027109;28;20511;-52
2022/09/07 06:06:11;;;;;;;40.03;36.10;;;17.20;99.90;;;;;;5042565;28;20099;-45
2022/09/07 06:09:33;;;;;;;41.88;38.05;;;17.30;99.90;;;;;;5132272;27;20413;-45
2022/09/07 06:12:03;;;;;;;43.35;39.40;;;17.30;99.90;;;;;;5093552;28;20128;-52
2022/09/07 06:14:29;;;;;;;41.92;38.28;;;17.40;99.90;;;;;;5102928;28;20043;-53
2022/09/07 06:16:55;;;;;;;44.17;39.92;;;17.40;99.90;;;;;;5116598;28;20146;-44
2022/09/07 06:19:21;;;;;;;42.05;38.05;;;17.50;99.90;;;;;;5114182;27;20322;-44
2022/09/07 06:21:47;;;;;;;46.13;41.70;;;17.50;99.90;;;;;;5116027;28;20126;-51
2022/09/07 06:24:13;;;;;;;44.72;40.47;;;17.50;99.90;;;;;;5081962;28;20389;-56
2022/09/07 06:26:42;;;;;;;44.38;40.28;;;17.50;99.90;;;;;;5110115;28;20118;-45
2022/09/07 06:29:09;;;;;;;43.83;39.75;;;17.50;99.90;;;;;;5112887;27;20398;-45
2022/09/07 06:31:35;;;;;;;42.85;38.70;;;17.50;99.90;;;;;;5111736;28;20082;-43
2022/09/07 06:34:01;;;;;;;45.65;41.30;;;17.50;99.90;;;;;;5115736;28;20559;-43
2022/09/07 06:36:27;;;;;;;45.58;41.33;;;17.60;99.90;;;;;;5098061;28;20035;-54
2022/09/07 06:38:54;;;;;;;48.25;43.50;;;17.60;99.90;;;;;;5116906;27;20414;-53
2022/09/07 06:41:27;;;;;;;46.00;41.92;;;17.70;99.90;;;;;;5095374;28;20055;-51
2022/09/07 06:43:55;;;;;;;48.20;43.53;;;17.80;99.90;;;;;;5112771;27;20433;-51
2022/09/07 06:46:22;;;;;;;47.28;43.00;;;17.80;99.90;;;;;;5120417;27;20050;-54
2022/09/07 06:48:54;;;;;;;46.97;42.47;;;17.90;99.90;;;;;;5112143;28;20055;-48
2022/09/07 06:51:25;;;;;;;44.63;40.35;;;18.00;99.90;;;;;;5109341;28;20052;-45
2022/09/07 06:53:55;;;;;;;44.75;40.53;;;18.00;99.90;;;;;;5108560;27;20145;-52
2022/09/07 06:56:22;;;;;;;44.42;40.25;;;18.00;99.90;;;;;;5112739;27;20081;-54
2022/09/07 06:58:55;;;;;;;44.97;40.75;;;18.00;99.90;;;;;;5100528;27;20055;-54
2022/09/07 07:01:23;;;;;;;43.35;39.40;;;18.00;99.90;;;;;;5114547;28;20071;-52
2022/09/07 07:03:50;;;;;;;42.08;37.97;;;18.00;99.90;;;;;;5113192;27;20104;-54
2022/09/07 07:06:16;;;;;;;41.78;38.10;;;18.00;99.90;;;;;;5113501;27;20101;-52
2022/09/07 07:08:43;;;;;;;42.05;38.30;;;18.00;99.90;;;;;;5128249;27;20898;-53
2022/09/07 07:11:11;;;;;;;41.60;37.40;;;18.00;99.90;;;;;;5102852;28;20101;-54
2022/09/07 07:13:38;;;;;;;42.15;37.88;;;18.00;99.90;;;;;;5110718;27;20070;-59
2022/09/07 07:16:07;;;;;;;39.50;35.60;;;18.00;99.90;;;;;;5114681;27;20039;-44
2022/09/07 07:18:33;;;;;;;41.88;37.95;;;18.00;99.90;;;;;;5117124;27;20644;-44
2022/09/07 07:21:04;;;;;;;43.55;39.25;;;18.10;99.90;;;;;;5103357;27;20043;-48
2022/09/07 07:23:31;;;;;;;43.60;39.42;;;18.10;99.90;;;;;;5074178;28;20055;-48
2022/09/07 07:26:05;;;;;;;45.83;40.33;;;18.20;99.90;;;;;;5099022;28;20051;-45
2022/09/07 07:28:31;;;;;;;41.92;37.97;;;18.30;99.90;;;;;;5101559;28;20055;-53
2022/09/07 07:30:59;;;;;;;42.15;37.80;;;18.40;99.90;;;;;;5098603;27;20051;-44
2022/09/07 07:33:34;;;;;;;41.50;37.30;;;18.40;99.90;;;;;;5100843;28;20164;-47
2022/09/07 07:36:24;;;;;;;38.67;34.65;;;18.40;99.90;;;;;;5093539;28;20732;-53
2022/09/07 07:38:53;;;;;;;36.88;33.25;;;18.40;99.90;;;;;;5098785;28;20077;-44
2022/09/07 07:41:21;;;;;;;36.25;32.83;;;18.40;99.90;;;;;;5086343;28;20136;-55
2022/09/07 07:43:51;;;;;;;37.78;34.13;;;18.40;99.90;;;;;;5101053;28;20688;-52
2022/09/07 07:46:17;;;;;;;36.70;33.25;;;18.40;99.90;;;;;;5093367;28;20040;-50
2022/09/07 07:48:47;;;;;;;38.35;34.60;;;18.40;99.90;;;;;;5091517;28;20056;-52
2022/09/07 07:51:13;;;;;;;35.88;32.58;;;18.50;99.90;;;;;;5109313;27;20393;-53
2022/09/07 07:53:41;;;;;;;38.33;34.63;;;18.60;99.90;;;;;;5083431;28;20044;-47
2022/09/07 07:56:08;;;;;;;36.20;32.78;;;18.60;99.90;;;;;;5065888;28;20051;-44
2022/09/07 07:58:38;;;;;;;38.83;35.15;;;18.60;99.90;;;;;;5102028;28;20054;-51
2022/09/07 08:01:10;;;;;;;34.05;30.95;;;18.60;99.90;;;;;;5115613;27;20184;-46
2022/09/07 08:03:39;;;;;;;33.13;30.10;;;18.60;99.90;;;;;;5095942;28;20073;-54
2022/09/07 08:06:12;;;;;;;33.88;30.52;;;18.50;99.90;;;;;;5104213;27;20661;-54
2022/09/07 08:08:38;;;;;;;31.75;28.75;;;18.50;99.90;;;;;;5101754;28;20062;-54
2022/09/07 08:11:07;;;;;;;33.55;30.30;;;18.50;99.90;;;;;;5078360;28;20586;-53
2022/09/07 08:13:41;;;;;;;32.72;29.63;;;18.50;99.90;;;;;;5098501;28;20368;-46
2022/09/07 08:16:08;;;;;;;29.40;26.77;;;18.60;99.90;;;;;;5104952;27;20486;-44
2022/09/07 08:18:37;;;;;;;28.63;26.05;;;18.70;99.90;;;;;;5080565;28;20050;-46
2022/09/07 08:21:06;;;;;;;29.42;26.40;;;19.10;99.90;;;;;;5095803;28;20050;-43
2022/09/07 08:23:33;;;;;;;28.20;25.55;;;19.40;99.90;;;;;;5096452;28;20502;-43
2022/09/07 08:25:59;;;;;;;29.08;26.40;;;19.70;99.90;;;;;;5100093;27;20398;-44
2022/09/07 08:28:27;;;;;;;24.02;21.63;;;19.70;99.90;;;;;;5099332;27;20490;-46
2022/09/07 08:30:54;;;;;;;24.50;22.20;;;19.70;99.90;;;;;;5088085;28;20665;-47
2022/09/07 08:33:21;;;;;;;22.92;20.98;;;19.90;99.90;;;;;;5088151;28;20122;-50
2022/09/07 08:36:01;;;;;;;23.25;21.25;;;20.20;99.90;;;;;;5084873;28;20047;-46
2022/09/07 08:38:31;;;;;;;22.25;20.05;;;20.30;99.90;;;;;;5100538;27;20200;-45
2022/09/07 08:40:59;;;;;;;20.80;18.88;;;20.30;99.90;;;;;;5100441;28;20047;-45
2022/09/07 08:43:50;;;;;;;18.98;17.20;;;20.20;99.90;;;;;;5095816;28;20070;-46
2022/09/07 08:46:26;;;;;;;19.17;17.20;;;19.90;99.90;;;;;;5097921;28;20040;-51
2022/09/07 08:48:55;;;;;;;19.88;18.02;;;19.70;99.90;;;;;;5099669;27;20604;-52
2022/09/07 08:51:37;;;;;;;18.40;16.73;;;19.70;99.90;;;;;;5095247;27;20091;-53
2022/09/07 08:54:04;;;;;;;18.17;16.60;;;19.80;99.90;;;;;;5065826;28;20269;-50
2022/09/07 08:56:35;;;;;;;18.77;17.02;;;19.70;99.90;;;;;;5097581;28;20044;-51
2022/09/07 08:59:13;;;;;;;20.73;18.83;;;19.80;99.90;;;;;;5076737;28;20498;-46
2022/09/07 09:01:41;;;;;;;20.05;18.27;;;19.80;99.90;;;;;;5076072;28;20301;-44
2022/09/07 09:04:24;;;;;;;19.60;17.60;;;20.00;99.90;;;;;;5084841;27;20054;-48
2022/09/07 09:07:03;;;;;;;19.92;17.95;;;20.20;99.90;;;;;;5090409;27;20059;-44
2022/09/07 09:09:51;;;;;;;18.85;17.23;;;20.20;99.90;;;;;;5097353;27;20051;-45
2022/09/07 09:12:32;;;;;;;19.02;17.33;;;20.10;99.90;;;;;;5096792;28;20483;-51
2022/09/07 09:15:16;;;;;;;20.55;18.65;;;20.10;99.90;;;;;;5089695;28;20046;-53
2022/09/07 09:18:19;;;;;;;18.05;16.48;;;20.10;99.90;;;;;;5093384;28;20354;-51
2022/09/07 09:20:50;;;;;;;17.30;15.80;;;20.10;99.90;;;;;;5098446;27;20043;-53
2022/09/07 09:23:19;;;;;;;16.98;15.35;;;20.10;99.90;;;;;;5097068;28;20165;-52
2022/09/07 09:25:54;;;;;;;16.25;14.65;;;20.10;99.90;;;;;;5098499;28;20047;-52
2022/09/07 09:28:20;;;;;;;16.55;14.98;;;20.20;99.90;;;;;;5095091;28;20060;-49
2022/09/07 09:30:47;;;;;;;16.70;15.10;;;20.40;99.90;;;;;;5088372;28;20066;-49
2022/09/07 09:33:25;;;;;;;16.33;14.93;;;20.60;99.90;;;;;;5081577;28;20075;-52
2022/09/07 09:35:53;;;;;;;14.88;13.68;;;20.70;99.90;;;;;;5088081;28;20111;-54
2022/09/07 09:38:33;;;;;;;13.13;11.90;;;20.90;99.90;;;;;;5081807;28;20051;-53
2022/09/07 09:41:04;;;;;;;13.40;12.15;;;21.30;99.90;;;;;;5075916;28;20047;-50
2022/09/07 09:43:38;;;;;;;14.90;13.43;;;21.30;99.90;;;;;;5095630;28;20499;-52
2022/09/07 09:46:18;;;;;;;13.52;12.32;;;21.20;99.90;;;;;;5095801;28;20085;-45
2022/09/07 09:48:51;;;;;;;12.25;11.05;;;21.00;99.90;;;;;;5098451;27;20056;-44
2022/09/07 09:51:18;;;;;;;11.73;10.50;;;21.10;99.90;;;;;;5113746;27;20047;-44
2022/09/07 09:53:58;;;;;;;11.20;10.20;;;21.00;99.90;;;;;;5093829;28;20542;-46
2022/09/07 09:56:36;;;;;;;11.65;10.45;;;21.10;99.90;;;;;;5091262;28;20445;-53
2022/09/07 09:59:15;;;;;;;10.77;9.73;;;21.60;99.90;;;;;;5096552;28;20048;-51
2022/09/07 10:01:42;;;;;;;10.90;9.90;;;21.50;99.90;;;;;;5076507;28;20100;-48
2022/09/07 10:04:29;;;;;;;10.80;9.80;;;21.50;99.90;;;;;;5048038;28;20624;-44
2022/09/07 10:07:26;;;;;;;10.82;9.77;;;21.70;99.90;;;;;;5096397;28;20055;-48
2022/09/07 10:09:55;;;;;;;9.15;8.25;;;21.90;99.90;;;;;;5088550;28;20590;-45
2022/09/07 10:12:38;;;;;;;10.07;9.13;;;22.30;99.90;;;;;;5078906;28;20058;-46
2022/09/07 10:15:06;;;;;;;9.93;9.02;;;22.50;99.90;;;;;;5096704;28;20054;-46
2022/09/07 10:17:36;;;;;;;9.27;8.38;;;23.00;99.90;;;;;;5095170;28;20066;-54
2022/09/07 10:20:14;;;;;;;9.15;7.10;;;23.50;99.90;;;;;;5096320;28;20498;-55
2022/09/07 10:22:55;;;;;;;8.25;6.72;;;24.10;99.90;;;;;;5091680;28;20048;-56
2022/09/07 10:25:32;;;;;;;8.00;6.93;;;23.90;99.90;;;;;;5096524;28;20525;-57
2022/09/07 10:28:08;;;;;;;8.02;6.30;;;23.70;99.90;;;;;;5092575;28;20070;-55
2022/09/07 10:30:52;;;;;;;7.68;5.68;;;23.20;99.90;;;;;;5078493;28;20409;-57
2022/09/07 10:33:40;;;;;;;6.13;5.07;;;23.40;99.90;;;;;;5075059;28;20055;-55
2022/09/07 10:36:12;;;;;;;5.10;4.60;;;23.30;99.90;;;;;;5096543;28;20035;-54
2022/09/07 10:38:46;;;;;;;5.57;4.50;;;23.70;99.90;;;;;;5093144;28;20719;-55
2022/09/07 10:41:13;;;;;;;6.93;4.53;;;23.60;99.90;;;;;;5098101;28;20468;-44
2022/09/07 10:43:48;;;;;;;6.22;4.97;;;23.80;99.90;;;;;;5093062;28;20067;-47
2022/09/07 10:46:35;;;;;;;6.18;4.88;;;24.20;99.90;;;;;;5087641;28;20051;-49
2022/09/07 10:49:07;;;;;;;11.88;10.10;;;24.50;99.90;;;;;;5087139;28;20062;-55
2022/09/07 10:51:57;;;;;;;7.30;5.65;;;25.40;99.90;;;;;;5072948;28;20507;-44
2022/09/07 10:54:32;;;;;;;7.43;4.85;;;25.50;99.90;;;;;;5093029;28;20043;-47
2022/09/07 10:57:28;;;;;;;9.20;8.15;;;25.10;99.90;;;;;;5095711;28;20600;-58
2022/09/07 11:00:02;;;;;;;6.38;5.38;;;24.90;99.90;;;;;;5078517;28;20177;-46
2022/09/07 11:03:11;;;;;;;7.65;6.45;;;25.50;99.90;;;;;;5091788;28;20044;-55
2022/09/07 11:05:49;;;;;;;7.32;4.28;;;25.90;99.90;;;;;;5094086;28;20422;-56
2022/09/07 11:08:46;;;;;;;5.45;4.55;;;25.50;99.90;;;;;;5097324;28;20060;-57
2022/09/07 11:11:26;;;;;;;6.57;5.57;;;25.40;99.90;;;;;;5092422;27;20089;-56
2022/09/07 11:13:59;;;;;;;6.10;4.87;;;25.60;99.90;;;;;;5093116;28;20073;-56
2022/09/07 11:16:32;;;;;;;5.75;4.22;;;26.40;99.90;;;;;;5089255;28;21238;-56
2022/09/07 11:19:15;;;;;;;5.00;4.05;;;26.50;99.90;;;;;;5089399;28;20059;-56
2022/09/07 11:21:59;;;;;;;5.90;3.97;;;26.70;99.90;;;;;;5096366;27;20462;-57
2022/09/07 11:24:32;;;;;;;6.00;4.72;;;26.00;99.90;;;;;;5095954;28;20467;-56
2022/09/07 11:27:21;;;;;;;6.10;5.25;;;25.60;99.90;;;;;;5093502;28;20063;-56
2022/09/07 11:29:58;;;;;;;8.70;6.68;;;25.90;99.90;;;;;;5097797;28;20576;-56
2022/09/07 11:32:30;;;;;;;8.35;6.22;;;26.20;99.90;;;;;;5074448;28;21008;-57
2022/09/07 11:35:18;;;;;;;7.13;5.60;;;26.50;99.90;;;;;;5061864;28;20043;-56
2022/09/07 11:37:53;;;;;;;6.57;4.40;;;27.30;99.90;;;;;;5110401;27;20047;-57
2022/09/07 11:40:41;;;;;;;6.30;3.65;;;27.70;99.90;;;;;;5082130;28;20051;-46
2022/09/07 11:43:30;;;;;;;7.38;4.38;;;28.20;96.00;;;;;;5072140;27;20047;-56
2022/09/07 11:46:22;;;;;;;6.05;4.35;;;28.10;97.50;;;;;;5075870;28;20116;-56
2022/09/07 11:48:58;;;;;;;9.93;8.98;;;27.90;97.60;;;;;;5075152;28;20126;-56
2022/09/07 11:51:45;;;;;;;6.75;4.32;;;27.90;95.30;;;;;;5091068;28;20368;-48
2022/09/07 11:54:47;;;;;;;5.82;4.20;;;27.70;96.70;;;;;;5078617;28;20182;-48
2022/09/07 11:57:13;;;;;;;7.25;4.53;;;27.40;99.90;;;;;;5063795;28;20075;-44
2022/09/07 12:00:11;;;;;;;10.48;9.43;;;27.70;99.90;;;;;;5094347;27;20464;-45
2022/09/07 12:02:55;;;;;;;7.30;4.63;;;27.00;99.90;;;;;;5074579;28;20051;-44
2022/09/07 12:05:45;;;;;;;6.40;4.57;;;26.40;99.90;;;;;;5094479;27;20052;-47
2022/09/07 12:08:32;;;;;;;5.45;4.30;;;26.90;99.90;;;;;;5071215;28;20056;-47
2022/09/07 12:11:17;;;;;;;5.32;3.95;;;27.00;99.90;;;;;;5096036;28;20481;-49
2022/09/07 12:13:57;;;;;;;5.47;3.65;;;26.70;99.90;;;;;;5095004;28;20094;-47
2022/09/07 12:16:54;;;;;;;6.78;5.53;;;26.70;99.90;;;;;;5095535;28;20097;-47
2022/09/07 12:19:23;;;;;;;8.23;6.05;;;26.70;99.90;;;;;;5091943;28;20062;-44
2022/09/07 12:21:52;;;;;;;6.60;4.45;;;26.90;99.90;;;;;;5096469;28;20406;-48
2022/09/07 12:24:38;;;;;;;7.60;6.25;;;27.60;97.60;;;;;;5095292;28;20047;-49
2022/09/07 12:27:27;;;;;;;14.40;13.05;;;28.30;95.80;;;;;;5089692;28;20127;-56
2022/09/07 12:29:56;;;;;;;4.75;2.90;;;28.90;90.10;;;;;;5094117;28;20546;-56
2022/09/07 12:32:47;;;;;;;4.78;2.72;;;29.60;92.60;;;;;;5095706;28;20055;-56
2022/09/07 12:35:25;;;;;;;;;;;29.30;86.60;;;;;;5093851;27;20073;-57
2022/09/07 12:37:52;;;;;;;5.95;3.58;;;28.80;87.80;;;;;;5095517;27;19915;-50
2022/09/07 12:40:28;;;;;;;5.13;3.33;;;28.80;94.50;;;;;;5093661;27;20443;-46
2022/09/07 12:43:12;;;;;;;3.60;2.40;;;29.00;92.40;;;;;;5093950;28;20040;-49
2022/09/07 12:45:38;;;;;;;4.88;3.95;;;29.80;86.60;;;;;;5073103;28;20456;-47
2022/09/07 12:48:14;;;;;;;4.03;2.75;;;29.30;88.00;;;;;;5089894;28;20578;-45
2022/09/07 12:51:17;;;;;;;3.83;2.20;;;28.70;90.00;;;;;;5075203;28;20044;-46
2022/09/07 12:53:59;;;;;;;4.10;2.47;;;28.20;92.90;;;;;;5094592;28;20088;-48
2022/09/07 12:57:08;;;;;;;4.43;2.70;;;27.60;94.60;;;;;;5088909;27;20139;-49
2022/09/07 12:59:50;;;;;;;8.90;7.97;;;28.60;93.40;;;;;;5087281;28;20046;-55
2022/09/07 13:02:46;;;;;;;4.32;1.90;;;29.50;84.40;;;;;;5079200;28;20425;-47